Time;durP1;ratioP1;P1;durP2;ratioP2;P2;SDS_P1;SDS_P2;PMS_P1;PMS_P2;Temp;Humidity;BMP_temperature;BMP_pressure;BME280_temperature;BME280_humidity;BME280_pressure;Samples;Min_cycle;Max_cycle;Signal;HPM_P1;HPM_P2
2023/07/06 00:00:37;;;;;;;1.77;1.67;;;;;;;16.98;54.97;101212.50;4958955;28;97030;-56
2023/07/06 00:03:03;;;;;;;1.43;1.30;;;;;;;16.98;55.09;101218.06;4957283;28;96858;-52
2023/07/06 00:05:29;;;;;;;1.73;1.63;;;;;;;17.01;55.22;101221.84;4960432;28;96821;-50
2023/07/06 00:07:56;;;;;;;1.30;1.23;;;;;;;17.02;55.24;101223.31;4957388;28;97590;-53
2023/07/06 00:10:22;;;;;;;1.50;1.40;;;;;;;17.03;55.23;101227.63;4958862;28;97228;-50
2023/07/06 00:12:47;;;;;;;2.77;1.63;;;;;;;17.02;55.52;101221.31;4960027;28;97028;-51
2023/07/06 00:15:13;;;;;;;1.87;1.77;;;;;;;17.07;55.46;101220.50;4957555;28;96979;-52
2023/07/06 00:17:38;;;;;;;1.93;1.83;;;;;;;17.09;55.52;101223.50;4960042;28;96890;-50
2023/07/06 00:20:07;;;;;;;1.80;1.43;;;;;;;17.11;55.64;101217.41;4954924;28;97112;-52
2023/07/06 00:22:36;;;;;;;2.07;1.87;;;;;;;17.14;55.67;101221.94;4957186;28;96843;-51
2023/07/06 00:25:01;;;;;;;2.07;1.70;;;;;;;17.19;55.53;101218.31;4954089;28;97115;-51
2023/07/06 00:27:28;;;;;;;4.07;2.13;;;;;;;17.18;55.77;101223.13;4955949;28;96806;-53
2023/07/06 00:29:56;;;;;;;1.73;1.63;;;;;;;17.25;55.78;101230.13;4956736;28;96762;-56
2023/07/06 00:32:27;;;;;;;1.80;1.70;;;;;;;17.27;55.80;101229.59;4956154;28;97359;-49
2023/07/06 00:34:56;;;;;;;2.53;1.90;;;;;;;17.29;55.91;101232.59;4956915;28;96713;-49
2023/07/06 00:37:22;;;;;;;2.60;1.80;;;;;;;17.34;55.86;101235.34;4954366;28;98027;-54
2023/07/06 00:39:50;;;;;;;3.20;1.80;;;;;;;17.37;55.91;101233.50;4957291;28;97522;-50
2023/07/06 00:42:17;;;;;;;1.90;1.80;;;;;;;17.40;55.87;101238.03;4954299;28;97126;-56
2023/07/06 00:44:47;;;;;;;2.10;1.90;;;;;;;17.42;56.09;101238.25;4956894;28;97086;-50
2023/07/06 00:47:12;;;;;;;3.50;1.60;;;;;;;17.43;55.94;101232.16;4955707;28;97165;-52
2023/07/06 00:49:39;;;;;;;1.60;1.50;;;;;;;17.46;55.79;101236.69;4959642;28;97145;-56
2023/07/06 00:52:05;;;;;;;1.73;1.63;;;;;;;17.50;55.92;101233.59;4964108;28;96809;-53
2023/07/06 00:54:31;;;;;;;1.80;1.70;;;;;;;17.52;55.87;101234.59;4963297;28;96856;-53
2023/07/06 00:56:58;;;;;;;3.67;1.93;;;;;;;17.53;55.87;101235.34;4959870;28;97036;-50
2023/07/06 00:59:26;;;;;;;2.10;1.93;;;;;;;17.55;55.94;101241.91;4948491;28;97530;-51
2023/07/06 01:01:52;;;;;;;6.93;1.80;;;;;;;17.55;55.96;101244.69;4961331;28;96799;-50
2023/07/06 01:04:20;;;;;;;1.73;1.63;;;;;;;17.57;56.02;101244.91;4960143;28;96942;-53
2023/07/06 01:06:51;;;;;;;3.20;1.57;;;;;;;17.59;56.21;101245.13;4956290;28;97362;-53
2023/07/06 01:09:20;;;;;;;1.77;1.67;;;;;;;17.61;56.04;101242.56;4959311;28;97279;-51
2023/07/06 01:11:47;;;;;;;2.27;2.07;;;;;;;17.62;56.06;101241.31;4960161;28;99032;-58
2023/07/06 01:14:13;;;;;;;2.93;1.57;;;;;;;17.63;56.00;101231.66;4961389;28;97184;-52
2023/07/06 01:16:45;;;;;;;2.40;1.53;;;;;;;17.65;56.13;101242.25;4957667;28;97336;-56
2023/07/06 01:19:48;;;;;;;2.90;1.90;;;;;;;17.65;56.70;101239.47;4955221;28;96957;-52
2023/07/06 01:22:47;;;;;;;1.73;1.63;;;;;;;17.63;56.81;101236.47;4958779;28;96822;-55
2023/07/06 01:25:34;;;;;;;1.70;1.60;;;;;;;17.65;56.15;101248.59;4954756;28;96671;-52
2023/07/06 01:28:14;;;;;;;2.53;1.53;;;;;;;17.66;56.25;101244.53;4958832;28;97019;-60
2023/07/06 01:30:52;;;;;;;2.63;1.67;;;;;;;17.66;56.08;101238.97;4962790;28;96784;-55
2023/07/06 01:33:28;;;;;;;1.63;1.53;;;;;;;17.64;56.26;101241.53;4957305;28;97567;-52
2023/07/06 01:36:05;;;;;;;1.50;1.40;;;;;;;17.68;56.42;101246.78;4955561;28;96881;-56
2023/07/06 01:38:31;;;;;;;2.70;1.83;;;;;;;17.69;56.14;101251.81;4953645;28;97036;-51
2023/07/06 01:40:57;;;;;;;2.80;1.63;;;;;;;17.70;56.18;101260.91;4953963;28;97725;-52
2023/07/06 01:43:25;;;;;;;1.63;1.50;;;;;;;17.72;56.29;101253.56;4952562;28;97317;-53
2023/07/06 01:45:52;;;;;;;1.33;1.23;;;;;;;17.70;56.36;101264.47;4955403;28;96837;-51
2023/07/06 01:48:18;;;;;;;1.97;1.70;;;;;;;17.70;56.29;101255.34;4952455;28;97360;-50
2023/07/06 01:51:22;;;;;;;1.83;1.70;;;;;;;17.71;56.58;101254.81;4951190;28;97703;-51
2023/07/06 01:54:00;;;;;;;1.57;1.30;;;;;;;17.71;56.90;101249.25;4940228;28;96595;-49
2023/07/06 01:56:32;;;;;;;1.60;1.37;;;;;;;17.71;56.48;101252.03;4951238;28;97490;-54
2023/07/06 01:59:03;;;;;;;1.60;1.50;;;;;;;17.73;56.37;101255.06;4952824;28;97391;-50
2023/07/06 02:01:37;;;;;;;3.57;1.50;;;;;;;17.74;56.65;101250.22;4950837;28;97442;-55
2023/07/06 02:04:06;;;;;;;1.70;1.60;;;;;;;17.74;56.38;101253.78;4948767;28;96757;-58
2023/07/06 02:06:33;;;;;;;2.90;1.70;;;;;;;17.72;56.53;101253.56;4952650;28;97131;-51
2023/07/06 02:08:58;;;;;;;1.70;1.47;;;;;;;17.72;56.58;101253.56;4950896;28;97141;-52
2023/07/06 02:11:24;;;;;;;1.57;1.40;;;;;;;17.73;56.58;101255.06;4953377;28;97716;-51
2023/07/06 02:13:51;;;;;;;1.57;1.47;;;;;;;17.72;56.53;101256.34;4952675;28;97096;-53
2023/07/06 02:16:16;;;;;;;1.73;1.60;;;;;;;17.71;56.64;101263.16;4949332;28;97167;-50
2023/07/06 02:18:42;;;;;;;2.00;1.80;;;;;;;17.71;56.59;101270.78;4952089;28;97193;-51
2023/07/06 02:21:09;;;;;;;1.83;1.70;;;;;;;17.71;56.81;101268.00;4948134;28;97252;-52
2023/07/06 02:23:34;;;;;;;1.53;1.43;;;;;;;17.68;56.65;101269.81;4950724;28;96811;-55
2023/07/06 02:25:59;;;;;;;1.70;1.30;;;;;;;17.66;56.72;101268.81;4952072;28;97357;-53
2023/07/06 02:28:25;;;;;;;1.83;1.50;;;;;;;17.64;56.68;101268.59;4949678;28;105248;-55
2023/07/06 02:30:54;;;;;;;1.37;1.27;;;;;;;17.62;56.71;101268.38;4949659;28;97149;-53
2023/07/06 02:33:21;;;;;;;2.20;1.83;;;;;;;17.59;56.69;101272.97;4951566;28;97270;-50
2023/07/06 02:35:47;;;;;;;2.90;1.67;;;;;;;17.56;56.83;101279.56;4953696;28;96985;-51
2023/07/06 02:38:14;;;;;;;1.83;1.60;;;;;;;17.54;56.81;101276.56;4951129;28;97317;-53
2023/07/06 02:40:39;;;;;;;1.97;1.63;;;;;;;17.52;56.97;101272.78;4954344;28;97791;-50
2023/07/06 02:43:05;;;;;;;1.90;1.80;;;;;;;17.52;57.07;101279.13;4950231;28;96772;-55
2023/07/06 02:45:30;;;;;;;1.97;1.87;;;;;;;17.50;57.07;101278.09;4952192;28;97279;-56
2023/07/06 02:47:55;;;;;;;1.60;1.50;;;;;;;17.48;57.14;101278.63;4937830;28;112134;-53
2023/07/06 02:50:21;;;;;;;1.93;1.83;;;;;;;17.46;57.26;101272.84;4950111;28;98366;-53
2023/07/06 02:52:47;;;;;;;2.00;1.43;;;;;;;17.45;57.20;101267.81;4952533;28;97317;-56
2023/07/06 02:55:12;;;;;;;3.73;1.50;;;;;;;17.45;57.30;101268.53;4951513;28;96911;-51
2023/07/06 02:57:39;;;;;;;1.37;1.27;;;;;;;17.44;57.15;101272.63;4948792;28;97506;-49
2023/07/06 03:00:11;;;;;;;1.93;1.50;;;;;;;17.43;57.37;101273.16;4949851;28;97091;-52
2023/07/06 03:02:36;;;;;;;1.53;1.43;;;;;;;17.41;57.44;101281.28;4949854;28;96977;-49
2023/07/06 03:05:04;;;;;;;1.70;1.40;;;;;;;17.40;57.38;101282.53;4953229;28;97499;-53
2023/07/06 03:07:33;;;;;;;1.53;1.43;;;;;;;17.37;57.35;101281.56;4952825;28;97001;-52
2023/07/06 03:10:00;;;;;;;2.30;1.60;;;;;;;17.34;57.41;101284.63;4953026;28;96969;-50
2023/07/06 03:12:25;;;;;;;1.40;1.20;;;;;;;17.31;57.48;101278.09;4949039;28;97188;-52
2023/07/06 03:14:50;;;;;;;2.43;1.80;;;;;;;17.28;57.68;101281.91;4951152;28;97212;-54
2023/07/06 03:17:16;;;;;;;1.30;1.20;;;;;;;17.26;57.50;101290.03;4948825;28;97583;-52
2023/07/06 03:19:41;;;;;;;1.53;1.43;;;;;;;17.22;57.60;101282.00;4949524;28;108463;-50
2023/07/06 03:22:07;;;;;;;3.73;1.50;;;;;;;17.21;57.59;101288.09;4949763;28;97173;-50
2023/07/06 03:24:33;;;;;;;1.50;1.40;;;;;;;17.17;57.61;101282.03;4951608;28;96809;-51
2023/07/06 03:26:58;;;;;;;1.70;1.60;;;;;;;17.14;57.78;101280.31;4950742;28;97718;-53
2023/07/06 03:29:23;;;;;;;1.43;1.33;;;;;;;17.13;57.79;101289.91;4951388;28;97753;-51
2023/07/06 03:31:49;;;;;;;2.00;1.90;;;;;;;17.12;57.74;101291.22;4951701;28;97170;-50
2023/07/06 03:34:14;;;;;;;1.70;1.63;;;;;;;17.08;57.71;101296.31;4950661;28;97391;-54
2023/07/06 03:36:39;;;;;;;1.63;1.53;;;;;;;17.09;57.86;101297.81;4950905;28;97988;-54
2023/07/06 03:39:05;;;;;;;1.40;1.30;;;;;;;17.08;58.00;101293.53;4951262;28;107187;-57
2023/07/06 03:41:31;;;;;;;1.87;1.67;;;;;;;17.07;57.95;101295.56;4949687;28;97434;-57
2023/07/06 03:43:58;;;;;;;2.00;1.90;;;;;;;17.05;58.07;101303.66;4948718;28;97048;-50
2023/07/06 03:46:33;;;;;;;2.10;2.00;;;;;;;17.05;58.18;101300.13;4942414;28;98952;-53
2023/07/06 03:49:03;;;;;;;3.13;1.87;;;;;;;17.04;58.11;101306.94;4949716;28;97895;-56
2023/07/06 03:51:30;;;;;;;1.70;1.60;;;;;;;17.03;58.18;101311.03;4948424;28;96848;-51
2023/07/06 03:53:55;;;;;;;2.73;2.20;;;;;;;17.01;58.22;101306.00;4947655;28;97473;-54
2023/07/06 03:56:27;;;;;;;1.90;1.80;;;;;;;17.02;58.31;101312.28;4948238;28;97283;-51
2023/07/06 03:58:59;;;;;;;2.87;2.67;;;;;;;17.05;58.67;101308.47;4950957;28;97168;-53
2023/07/06 04:01:27;;;;;;;2.70;1.97;;;;;;;17.04;58.45;101309.72;4951384;28;97142;-52
2023/07/06 04:03:55;;;;;;;3.03;2.83;;;;;;;17.07;58.49;101317.03;4950656;28;97300;-52
2023/07/06 04:06:24;;;;;;;3.10;2.80;;;;;;;17.09;58.50;101314.50;4949359;28;97942;-56
2023/07/06 04:08:50;;;;;;;2.80;2.60;;;;;;;17.14;58.52;101313.69;4953168;28;99365;-53
2023/07/06 04:11:16;;;;;;;3.47;2.93;;;;;;;17.19;58.69;101318.41;4950277;28;97158;-55
2023/07/06 04:13:41;;;;;;;3.23;3.03;;;;;;;17.25;58.71;101321.91;4952149;28;99186;-51
2023/07/06 04:16:14;;;;;;;3.60;3.20;;;;;;;17.31;58.75;101325.38;4954960;28;100332;-52
2023/07/06 04:18:39;;;;;;;3.70;3.20;;;;;;;17.39;58.60;101320.72;4953760;28;97789;-50
2023/07/06 04:21:04;;;;;;;3.37;2.60;;;;;;;17.47;58.62;101320.91;4955797;28;97160;-50
2023/07/06 04:23:30;;;;;;;3.73;3.43;;;;;;;17.53;58.57;101318.81;4955279;28;101789;-50
2023/07/06 04:25:55;;;;;;;4.00;3.33;;;;;;;17.54;58.72;101329.41;4955683;28;101952;-50
2023/07/06 04:28:20;;;;;;;3.97;3.67;;;;;;;17.57;58.75;101330.41;4952842;28;97519;-50
2023/07/06 04:30:49;;;;;;;3.93;3.50;;;;;;;17.58;58.81;101335.44;4954291;28;97394;-50
2023/07/06 04:33:19;;;;;;;4.50;3.40;;;;;;;17.60;58.69;101337.72;4952197;28;97291;-50
2023/07/06 04:35:51;;;;;;;3.70;3.40;;;;;;;17.60;58.78;101334.94;4953312;28;97267;-50
2023/07/06 04:38:16;;;;;;;3.80;3.50;;;;;;;17.63;58.91;101326.28;4954487;28;97461;-50
2023/07/06 04:40:42;;;;;;;3.30;3.10;;;;;;;17.68;58.73;101336.59;4953930;28;96717;-50
2023/07/06 04:43:10;;;;;;;4.20;3.80;;;;;;;17.71;58.87;101335.53;4954806;28;97096;-50
2023/07/06 04:45:36;;;;;;;3.93;3.63;;;;;;;17.74;58.85;101337.28;4954133;28;97405;-50
2023/07/06 04:48:03;;;;;;;5.10;3.80;;;;;;;17.82;58.78;101343.00;4953541;28;96862;-50
2023/07/06 04:50:31;;;;;;;3.63;3.37;;;;;;;17.82;58.72;101335.38;4953329;28;97103;-50
2023/07/06 04:52:58;;;;;;;5.10;4.67;;;;;;;17.90;58.84;101346.69;4952005;28;96754;-50
2023/07/06 04:55:27;;;;;;;4.60;4.20;;;;;;;17.94;58.71;101344.34;4953413;28;97119;-50
2023/07/06 04:57:54;;;;;;;4.03;3.73;;;;;;;17.94;58.77;101344.34;4950668;28;98818;-50
2023/07/06 05:00:25;;;;;;;4.73;4.33;;;;;;;17.96;58.72;101347.34;4951495;28;98178;-50
2023/07/06 05:02:59;;;;;;;5.43;4.93;;;;;;;18.01;59.00;101357.69;4954395;28;97247;-50
2023/07/06 05:05:28;;;;;;;5.97;4.90;;;;;;;17.96;58.67;101345.34;4952360;28;97208;-50
2023/07/06 05:07:55;;;;;;;5.47;4.30;;;;;;;17.92;58.82;101358.03;4935083;28;98584;-50
2023/07/06 05:10:21;;;;;;;5.10;4.70;;;;;;;17.90;58.69;101353.00;4951636;28;97292;-50
2023/07/06 05:12:46;;;;;;;5.70;5.10;;;;;;;17.87;59.00;101356.09;4950610;28;97138;-50
2023/07/06 05:15:13;;;;;;;5.40;4.90;;;;;;;17.87;58.80;101362.41;4952353;28;96657;-50
2023/07/06 05:17:39;;;;;;;4.83;4.43;;;;;;;17.90;58.97;101358.59;4952913;28;97339;-50
2023/07/06 05:20:10;;;;;;;5.50;5.00;;;;;;;17.95;58.99;101360.53;4953283;28;97298;-50
2023/07/06 05:22:39;;;;;;;4.80;4.50;;;;;;;17.97;58.82;101354.44;4953159;28;97954;-50
2023/07/06 05:25:11;;;;;;;6.13;5.23;;;;;;;18.02;58.90;101364.00;4951504;28;97659;-50
2023/07/06 05:27:37;;;;;;;5.90;4.63;;;;;;;18.07;58.86;101363.16;4954199;28;97493;-50
2023/07/06 05:30:03;;;;;;;5.40;4.97;;;;;;;18.08;58.77;101354.28;4954782;28;97080;-50
2023/07/06 05:32:29;;;;;;;5.50;5.00;;;;;;;18.14;58.76;101352.19;4951687;28;96930;-50
2023/07/06 05:34:54;;;;;;;9.73;5.33;;;;;;;18.17;58.67;101353.16;4953879;28;97546;-50
2023/07/06 05:37:20;;;;;;;4.97;4.47;;;;;;;18.18;58.79;101363.75;4953616;28;96855;-50
2023/07/06 05:39:46;;;;;;;5.30;4.90;;;;;;;18.22;58.79;101367.00;4951950;28;97124;-50
2023/07/06 05:42:13;;;;;;;6.00;5.40;;;;;;;18.27;58.57;101368.19;4952452;28;97423;-50
2023/07/06 05:44:38;;;;;;;5.40;4.97;;;;;;;18.29;58.74;101369.19;4950244;28;97250;-50
2023/07/06 05:47:04;;;;;;;5.30;4.90;;;;;;;18.37;58.57;101370.06;4955363;28;97171;-50
2023/07/06 05:49:29;;;;;;;8.20;5.40;;;;;;;18.43;58.55;101367.97;4951911;28;97052;-50
2023/07/06 05:51:55;;;;;;;4.73;4.33;;;;;;;18.49;58.40;101374.22;4953914;28;97060;-50
2023/07/06 05:54:20;;;;;;;4.57;4.17;;;;;;;18.53;58.32;101380.25;4954497;28;98073;-50
2023/07/06 05:56:46;;;;;;;6.13;5.10;;;;;;;18.54;58.32;101376.16;4954371;28;108281;-50
2023/07/06 05:59:12;;;;;;;7.27;4.30;;;;;;;18.63;58.42;101372.25;4950181;28;97074;-50
2023/07/06 06:01:37;;;;;;;8.57;4.83;;;;;;;18.74;57.99;101374.09;4951940;28;97576;-50
2023/07/06 06:04:02;;;;;;;5.60;4.37;;;;;;;18.80;58.14;101377.53;4952664;28;112481;-50
2023/07/06 06:06:28;;;;;;;4.20;3.83;;;;;;;18.87;58.01;101388.06;4954164;28;97190;-50
2023/07/06 06:08:54;;;;;;;4.47;3.93;;;;;;;18.94;57.86;101382.59;4953214;28;97187;-50
2023/07/06 06:11:21;;;;;;;4.17;3.87;;;;;;;18.94;57.66;101385.41;4954322;28;97457;-50
2023/07/06 06:13:47;;;;;;;4.07;3.67;;;;;;;19.00;57.80;101380.47;4952333;28;97882;-50
2023/07/06 06:16:13;;;;;;;3.70;3.40;;;;;;;19.10;57.36;101389.19;4951776;28;97415;-50
2023/07/06 06:18:41;;;;;;;3.50;3.20;;;;;;;19.14;57.53;101384.03;4949245;28;97464;-50
2023/07/06 06:21:07;;;;;;;4.20;3.47;;;;;;;19.21;57.37;101392.53;4951153;28;96800;-50
2023/07/06 06:23:32;;;;;;;5.03;3.80;;;;;;;19.27;57.23;101395.97;4951262;28;96715;-50
2023/07/06 06:25:58;;;;;;;4.00;3.70;;;;;;;19.29;57.36;101401.78;4954743;28;97153;-50
2023/07/06 06:28:24;;;;;;;4.13;3.80;;;;;;;19.34;57.17;101406.53;4952531;28;97582;-50
2023/07/06 06:30:51;;;;;;;3.83;2.80;;;;;;;19.40;57.10;101409.97;4954097;28;97446;-50
2023/07/06 06:33:17;;;;;;;3.60;3.00;;;;;;;19.46;57.06;101414.69;4951243;28;97292;-50
2023/07/06 06:35:44;;;;;;;3.17;2.87;;;;;;;19.54;56.69;101412.75;4950915;28;97265;-50
2023/07/06 06:38:10;;;;;;;3.30;3.00;;;;;;;19.62;56.49;101414.38;4950824;28;97183;-50
2023/07/06 06:40:36;;;;;;;2.90;2.60;;;;;;;19.70;56.54;101420.06;4952627;28;97253;-50
2023/07/06 06:43:03;;;;;;;2.90;2.70;;;;;;;19.76;56.22;101426.28;4953036;28;97652;-50
2023/07/06 06:45:30;;;;;;;3.57;3.00;;;;;;;19.80;56.13;101421.13;4949970;28;97277;-50
2023/07/06 06:47:55;;;;;;;2.33;2.13;;;;;;;19.81;56.08;101420.59;4951075;28;97521;-50
2023/07/06 06:50:21;;;;;;;2.57;2.10;;;;;;;19.78;56.03;101427.25;4950353;28;97066;-50
2023/07/06 06:52:49;;;;;;;2.73;2.53;;;;;;;19.83;55.99;101423.59;4938136;28;96845;-50
2023/07/06 06:55:14;;;;;;;3.40;2.93;;;;;;;19.88;55.67;101422.72;4953383;28;97127;-50
2023/07/06 06:57:40;;;;;;;2.53;2.33;;;;;;;19.92;55.83;101423.16;4952499;28;96724;-50
2023/07/06 07:00:09;;;;;;;2.57;2.40;;;;;;;19.98;55.71;101423.81;4954922;28;97256;-50
2023/07/06 07:02:35;;;;;;;2.73;2.43;;;;;;;20.03;55.65;101420.13;4952762;28;96918;-50
2023/07/06 07:05:00;;;;;;;2.57;2.37;;;;;;;20.11;55.50;101426.59;4950331;28;96862;-50
2023/07/06 07:07:27;;;;;;;2.93;2.47;;;;;;;20.21;55.46;101429.69;4952623;28;97561;-51
2023/07/06 07:09:53;;;;;;;4.03;2.43;;;;;;;20.29;55.37;101422.13;4950705;28;97225;-50
2023/07/06 07:12:19;;;;;;;2.93;2.73;;;;;;;20.36;55.23;101435.47;4949801;28;96753;-50
2023/07/06 07:14:45;;;;;;;3.20;2.97;;;;;;;20.40;54.93;101438.66;4950080;28;97846;-50
2023/07/06 07:17:11;;;;;;;3.97;2.77;;;;;;;20.40;54.67;101433.06;4951223;28;97446;-50
2023/07/06 07:19:36;;;;;;;3.17;2.93;;;;;;;20.40;54.64;101433.06;4950177;28;97478;-50
2023/07/06 07:22:01;;;;;;;2.87;2.40;;;;;;;20.45;54.67;101440.59;4948811;28;97042;-50
2023/07/06 07:24:31;;;;;;;3.70;2.93;;;;;;;20.49;54.50;101445.84;4951681;28;96718;-50
2023/07/06 07:26:57;;;;;;;2.90;2.20;;;;;;;20.60;54.43;101446.34;4949967;28;97183;-50
2023/07/06 07:29:23;;;;;;;3.37;2.47;;;;;;;20.66;54.33;101446.97;4952888;28;97230;-50
2023/07/06 07:31:49;;;;;;;2.93;2.67;;;;;;;20.70;54.29;101441.06;4950827;28;97302;-50
2023/07/06 07:34:15;;;;;;;3.63;2.70;;;;;;;20.75;54.16;101435.31;4949465;28;97759;-50
2023/07/06 07:36:40;;;;;;;6.13;2.53;;;;;;;20.83;54.09;101444.53;4950639;28;97720;-50
2023/07/06 07:39:05;;;;;;;4.73;2.60;;;;;;;20.89;53.98;101456.34;4952427;28;104773;-50
2023/07/06 07:41:31;;;;;;;2.70;2.50;;;;;;;20.98;53.77;101460.72;4949203;28;106920;-50
2023/07/06 07:43:58;;;;;;;2.80;2.50;;;;;;;21.08;53.69;101447.75;4950344;28;97381;-50
2023/07/06 07:46:24;;;;;;;3.03;2.20;;;;;;;21.20;53.48;101465.78;4951571;28;97146;-50
2023/07/06 07:48:50;;;;;;;2.70;2.50;;;;;;;21.32;53.23;101457.84;4956533;28;97628;-50
2023/07/06 07:51:21;;;;;;;5.30;2.30;;;;;;;21.41;52.77;101460.16;4950893;28;97483;-49
2023/07/06 07:53:47;;;;;;;2.57;2.37;;;;;;;21.41;52.77;101462.94;4952872;28;96964;-50
2023/07/06 07:56:15;;;;;;;2.60;2.40;;;;;;;21.49;52.76;101464.50;4953259;28;97568;-50
2023/07/06 07:58:41;;;;;;;2.80;2.60;;;;;;;21.56;52.49;101461.03;4952427;28;97008;-50
2023/07/06 08:01:09;;;;;;;4.20;2.30;;;;;;;21.57;52.12;101459.72;4951729;28;97037;-50
2023/07/06 08:03:36;;;;;;;3.20;2.40;;;;;;;21.59;51.94;101462.72;4954447;28;97309;-50
2023/07/06 08:06:05;;;;;;;2.63;1.70;;;;;;;21.68;51.98;101453.06;4955106;28;97077;-50
2023/07/06 08:08:33;;;;;;;4.33;2.10;;;;;;;21.75;51.86;101449.56;4953273;28;97160;-50
2023/07/06 08:11:04;;;;;;;2.00;1.90;;;;;;;21.82;51.77;101451.66;4954472;28;98025;-50
2023/07/06 08:13:30;;;;;;;3.10;1.70;;;;;;;21.81;51.59;101457.81;4951960;28;97670;-50
2023/07/06 08:15:55;;;;;;;2.20;2.00;;;;;;;21.67;51.60;101460.72;4953540;28;99751;-50
2023/07/06 08:18:24;;;;;;;2.90;2.20;;;;;;;21.58;51.62;101464.03;4957391;28;97522;-50
2023/07/06 08:20:53;;;;;;;2.93;1.93;;;;;;;21.58;51.81;101463.25;4951585;28;97926;-51
2023/07/06 08:23:20;;;;;;;2.27;1.77;;;;;;;21.62;51.72;101469.28;4957935;28;97321;-50
2023/07/06 08:25:46;;;;;;;1.90;1.80;;;;;;;21.65;51.51;101471.72;4952176;28;97147;-50
2023/07/06 08:28:12;;;;;;;2.23;1.87;;;;;;;21.67;51.71;101474.72;4952763;28;96939;-50
2023/07/06 08:30:40;;;;;;;1.83;1.73;;;;;;;21.75;51.52;101474.78;4952101;28;97512;-50
2023/07/06 08:33:07;;;;;;;2.17;1.70;;;;;;;21.74;51.16;101478.88;4953444;28;97234;-50
2023/07/06 08:35:33;;;;;;;1.97;1.77;;;;;;;21.80;51.33;101487.88;4951935;28;96717;-50
2023/07/06 08:38:04;;;;;;;3.20;1.80;;;;;;;21.82;51.29;101484.53;4952556;28;97242;-50
2023/07/06 08:40:31;;;;;;;2.10;1.90;;;;;;;21.75;51.38;101488.78;4955663;28;96741;-50
2023/07/06 08:42:57;;;;;;;2.27;1.90;;;;;;;21.70;51.18;101483.31;4955777;28;97203;-50
2023/07/06 08:45:36;;;;;;;3.80;1.73;;;;;;;21.67;50.87;101485.16;4954258;28;97131;-50
2023/07/06 08:48:02;;;;;;;3.23;2.07;;;;;;;21.65;51.59;101485.72;4956018;28;96838;-50
2023/07/06 08:50:31;;;;;;;3.43;2.20;;;;;;;21.67;51.60;101487.25;4951974;28;97389;-50
2023/07/06 08:52:57;;;;;;;3.30;2.20;;;;;;;21.68;51.76;101495.09;4952538;28;97007;-50
2023/07/06 08:55:24;;;;;;;5.60;2.20;;;;;;;21.81;51.80;101489.38;4955311;28;96753;-50
2023/07/06 08:57:50;;;;;;;2.80;2.07;;;;;;;22.03;51.72;101482.44;4952597;28;97220;-50
2023/07/06 09:00:21;;;;;;;1.70;1.60;;;;;;;22.22;51.01;101480.84;4954148;28;97307;-50
2023/07/06 09:02:48;;;;;;;5.13;2.13;;;;;;;22.20;50.73;101486.25;4954103;28;97958;-51
2023/07/06 09:05:15;;;;;;;1.90;1.80;;;;;;;22.14;50.87;101477.28;4944407;28;97177;-51
2023/07/06 09:07:45;;;;;;;2.10;1.50;;;;;;;22.10;50.82;101479.69;4955998;28;97457;-51
2023/07/06 09:10:13;;;;;;;2.27;1.83;;;;;;;22.10;50.90;101492.94;4954267;28;97512;-50
2023/07/06 09:12:39;;;;;;;2.73;2.00;;;;;;;22.06;51.00;101492.56;4951995;28;97210;-50
2023/07/06 09:15:08;;;;;;;4.43;1.63;;;;;;;22.02;50.56;101498.50;4954489;28;97596;-50
2023/07/06 09:17:34;;;;;;;2.50;1.90;;;;;;;22.03;50.48;101490.84;4953003;28;97395;-50
2023/07/06 09:20:03;;;;;;;2.13;1.93;;;;;;;22.11;50.25;101497.22;4951717;28;98076;-50
2023/07/06 09:22:29;;;;;;;2.37;1.80;;;;;;;22.21;50.01;101484.22;4953779;28;97626;-50
2023/07/06 09:24:59;;;;;;;1.87;1.63;;;;;;;22.30;49.53;101498.44;4952392;28;97201;-50
2023/07/06 09:27:28;;;;;;;2.30;1.87;;;;;;;22.59;49.99;101498.34;4950625;28;96797;-50
2023/07/06 09:30:02;;;;;;;2.53;1.60;;;;;;;22.97;49.32;101491.56;4952473;28;97083;-50
2023/07/06 09:32:32;;;;;;;3.37;1.50;;;;;;;23.18;49.07;101499.06;4952704;28;97654;-50
2023/07/06 09:35:08;;;;;;;1.53;1.43;;;;;;;23.24;48.41;101497.56;4954209;28;101877;-50
2023/07/06 09:37:43;;;;;;;1.23;1.13;;;;;;;23.21;48.82;101483.91;4952995;28;96841;-50
2023/07/06 09:40:09;;;;;;;2.60;1.33;;;;;;;23.18;48.38;101488.59;4951787;28;97866;-50
2023/07/06 09:42:34;;;;;;;1.77;1.43;;;;;;;23.19;48.44;101484.47;4953128;28;97314;-50
2023/07/06 09:45:00;;;;;;;2.70;1.70;;;;;;;23.24;48.60;101482.81;4940676;28;97532;-50
2023/07/06 09:47:30;;;;;;;2.23;1.60;;;;;;;23.27;48.36;101492.91;4954298;28;97445;-50
2023/07/06 09:50:18;;;;;;;1.90;1.80;;;;;;;23.27;48.12;101490.84;4951717;28;98175;-50
2023/07/06 09:52:44;;;;;;;2.50;1.50;;;;;;;23.30;48.56;101497.41;4950393;28;97392;-50
2023/07/06 09:55:24;;;;;;;1.70;1.60;;;;;;;23.26;47.65;101494.97;4954134;28;97408;-51
2023/07/06 09:57:51;;;;;;;2.90;1.50;;;;;;;23.21;48.16;101498.72;4952031;28;101890;-50
2023/07/06 10:00:19;;;;;;;3.83;1.30;;;;;;;23.12;48.16;101490.84;4953323;28;96862;-50
2023/07/06 10:02:53;;;;;;;1.53;1.40;;;;;;;23.05;47.65;101489.53;4949203;28;97556;-50
2023/07/06 10:05:25;;;;;;;1.20;1.10;;;;;;;22.90;46.95;101494.34;4951963;28;97145;-50
2023/07/06 10:08:02;;;;;;;1.70;1.00;;;;;;;22.75;47.01;101495.09;4950580;28;97229;-50
2023/07/06 10:10:52;;;;;;;2.23;1.90;;;;;;;22.67;47.19;101487.97;4953461;28;99025;-50
2023/07/06 10:13:31;;;;;;;1.60;1.30;;;;;;;22.63;47.22;101507.22;4951335;28;97421;-50
2023/07/06 10:16:37;;;;;;;4.30;1.57;;;;;;;22.55;47.06;101507.16;4953163;28;97188;-50
2023/07/06 10:19:20;;;;;;;1.83;1.17;;;;;;;22.46;46.81;101504.09;4952544;28;96743;-50
2023/07/06 10:21:50;;;;;;;0.83;0.83;;;;;;;22.45;47.50;101523.00;4952543;28;97516;-50
2023/07/06 10:24:51;;;;;;;1.50;1.40;;;;;;;22.44;47.14;101520.75;4953580;28;97945;-50
2023/07/06 10:27:27;;;;;;;1.73;1.30;;;;;;;22.49;47.58;101511.44;4950876;28;97362;-51
2023/07/06 10:29:59;;;;;;;1.57;1.47;;;;;;;22.54;47.77;101524.53;4951122;28;97641;-50
2023/07/06 10:32:36;;;;;;;2.00;1.40;;;;;;;22.56;47.75;101519.88;4952434;28;97344;-50
2023/07/06 10:35:18;;;;;;;4.10;1.60;;;;;;;22.60;47.70;101519.53;4951218;28;96798;-50
2023/07/06 10:37:44;;;;;;;1.30;1.10;;;;;;;22.64;47.80;101523.47;4952106;28;97203;-50
2023/07/06 10:40:23;;;;;;;1.43;1.10;;;;;;;22.66;47.45;101522.91;4955209;28;96967;-50
2023/07/06 10:43:13;;;;;;;2.10;1.43;;;;;;;22.70;47.28;101514.88;4953156;28;97121;-50
2023/07/06 10:45:53;;;;;;;1.20;1.10;;;;;;;22.77;47.20;101514.91;4952437;28;97215;-50
2023/07/06 10:48:24;;;;;;;1.73;1.47;;;;;;;22.84;47.37;101513.44;4950954;28;96784;-50
2023/07/06 10:51:20;;;;;;;1.60;1.50;;;;;;;22.92;46.70;101505.78;4951987;28;97369;-50
2023/07/06 10:54:07;;;;;;;2.03;1.33;;;;;;;23.05;46.40;101509.16;4951751;28;97137;-50
2023/07/06 10:56:40;;;;;;;2.83;1.10;;;;;;;23.18;46.74;101501.88;4941926;28;97137;-50
2023/07/06 10:59:18;;;;;;;2.00;1.80;;;;;;;23.30;46.85;101508.63;4951076;28;99822;-50
2023/07/06 11:01:45;;;;;;;1.90;1.10;;;;;;;23.36;46.94;101515.59;4951973;28;97043;-50
2023/07/06 11:04:41;;;;;;;2.10;1.10;;;;;;;23.39;45.82;101516.53;4952147;28;97230;-50
2023/07/06 11:07:45;;;;;;;1.40;1.30;;;;;;;23.38;45.52;101509.41;4951405;28;102309;-50
2023/07/06 11:10:12;;;;;;;1.43;1.33;;;;;;;23.40;46.43;101512.41;4952827;28;97105;-50
2023/07/06 11:12:57;;;;;;;1.07;0.97;;;;;;;23.37;45.47;101508.66;4953327;28;97050;-50
2023/07/06 11:15:40;;;;;;;1.10;1.07;;;;;;;23.33;45.80;101519.50;4936303;28;100869;-50
2023/07/06 11:18:23;;;;;;;2.13;0.90;;;;;;;23.25;45.47;101515.94;4950558;28;96973;-50
2023/07/06 11:21:02;;;;;;;1.40;1.00;;;;;;;23.26;45.50;101517.44;4949681;28;96772;-51
2023/07/06 11:23:41;;;;;;;1.40;1.20;;;;;;;23.28;45.76;101523.25;4954479;28;97032;-50
2023/07/06 11:26:22;;;;;;;2.83;1.40;;;;;;;23.29;45.86;101529.59;4956567;28;97452;-51
2023/07/06 11:28:47;;;;;;;2.03;1.17;;;;;;;23.28;46.06;101528.09;4957023;28;97404;-50
2023/07/06 11:31:35;;;;;;;1.40;1.30;;;;;;;23.33;45.32;101525.13;4946235;28;97057;-50
2023/07/06 11:34:18;;;;;;;2.70;1.10;;;;;;;23.55;45.43;101518.00;4958842;28;99608;-50